createdAt,value
2019-05-14T00:01:51.256Z,8.31
2019-05-14T00:04:16.619Z,8.19
2019-05-14T00:06:42.527Z,8.13
2019-05-14T00:09:08.359Z,7.94
2019-05-14T00:11:34.213Z,8.19
2019-05-14T00:14:01.262Z,7.94
2019-05-14T00:16:27.419Z,7.94
2019-05-14T00:18:53.260Z,7.81
2019-05-14T00:21:21.073Z,8.06
2019-05-14T00:23:46.919Z,7.87
2019-05-14T00:26:12.843Z,7.62
2019-05-14T00:28:38.670Z,7.75
2019-05-14T00:31:04.531Z,7.87
2019-05-14T00:33:31.585Z,8.00
2019-05-14T00:35:57.643Z,7.87
2019-05-14T00:38:23.467Z,7.69
2019-05-14T00:40:51.266Z,7.62
2019-05-14T00:43:17.069Z,7.56
2019-05-14T00:45:42.903Z,7.56
2019-05-14T00:48:08.743Z,7.44
2019-05-14T00:50:34.575Z,7.50
2019-05-14T00:53:01.900Z,7.56
2019-05-14T00:55:28.045Z,7.44
2019-05-14T00:57:53.887Z,7.62
2019-05-14T01:00:22.064Z,7.69
2019-05-14T01:02:48.045Z,7.44
2019-05-14T01:05:14.151Z,7.81
2019-05-14T01:07:42.081Z,7.81
2019-05-14T01:10:07.847Z,7.69
2019-05-14T01:12:33.780Z,7.87
2019-05-14T01:15:07.764Z,7.62
2019-05-14T01:17:27.357Z,7.56
2019-05-14T01:19:53.183Z,7.81
2019-05-14T01:22:21.103Z,7.31
2019-05-14T01:24:46.876Z,7.31
2019-05-14T01:27:12.761Z,7.25
2019-05-14T01:29:38.668Z,7.44
2019-05-14T01:32:04.521Z,7.25
2019-05-14T01:34:32.380Z,7.44
2019-05-14T01:36:58.115Z,7.37
2019-05-14T01:39:24.672Z,7.44
2019-05-14T01:41:51.665Z,7.56
2019-05-14T01:44:17.736Z,7.75
2019-05-14T01:46:43.596Z,7.69
2019-05-14T01:49:11.844Z,7.12
2019-05-14T01:51:37.209Z,7.25
2019-05-14T01:54:03.346Z,7.06
2019-05-14T01:56:29.273Z,6.69
2019-05-14T01:58:55.818Z,7.00
2019-05-14T02:01:21.978Z,6.81
2019-05-14T02:03:47.971Z,6.69
2019-05-14T02:06:13.819Z,6.69
2019-05-14T02:08:41.389Z,6.94
2019-05-14T02:11:07.430Z,6.75
2019-05-14T02:13:33.283Z,6.94
2019-05-14T02:16:01.088Z,6.75
2019-05-14T02:18:26.849Z,6.56
2019-05-14T02:20:52.713Z,6.81
2019-05-14T02:23:18.576Z,6.75
2019-05-14T02:25:44.420Z,6.56
2019-05-14T02:28:11.552Z,6.69
2019-05-14T02:30:48.040Z,6.62
2019-05-14T02:33:05.360Z,6.75
2019-05-14T02:35:31.196Z,6.50
2019-05-14T02:37:59.548Z,6.37
2019-05-14T02:40:24.804Z,6.56
2019-05-14T02:42:50.735Z,6.69
2019-05-14T02:45:19.614Z,6.31
2019-05-14T02:47:44.422Z,6.44
2019-05-14T02:50:10.752Z,6.31
2019-05-14T02:52:39.897Z,6.31
2019-05-14T02:55:08.694Z,6.56
2019-05-14T02:57:33.387Z,5.94
2019-05-14T02:59:59.773Z,6.00
2019-05-14T03:02:25.758Z,5.94
2019-05-14T03:04:51.701Z,6.00
2019-05-14T03:07:19.448Z,6.06
2019-05-14T03:09:45.432Z,5.94
2019-05-14T03:12:11.281Z,5.94
2019-05-14T03:14:39.644Z,5.87
2019-05-14T03:17:04.966Z,5.87
2019-05-14T03:19:30.923Z,5.87
2019-05-14T03:21:59.985Z,5.75
2019-05-14T03:24:24.787Z,5.69
2019-05-14T03:26:50.679Z,5.87
2019-05-14T03:29:19.386Z,6.12
2019-05-14T03:31:44.363Z,5.87
2019-05-14T03:34:13.527Z,6.19
2019-05-14T03:36:42.951Z,6.25
2019-05-14T03:39:05.833Z,5.94
2019-05-14T03:41:31.820Z,6.19
2019-05-14T03:44:00.087Z,6.19
2019-05-14T03:46:41.150Z,6.19
2019-05-14T03:48:53.119Z,6.06
2019-05-14T03:51:20.432Z,6.19
2019-05-14T03:53:56.914Z,6.12
2019-05-14T03:56:15.045Z,6.12
2019-05-14T03:58:40.904Z,6.00
2019-05-14T04:01:09.705Z,6.00
2019-05-14T04:03:34.644Z,6.37
2019-05-14T04:06:01.000Z,6.19
2019-05-14T04:08:29.333Z,6.31
2019-05-14T04:10:58.827Z,6.44
2019-05-14T04:13:23.802Z,6.37
2019-05-14T04:15:52.939Z,6.31
2019-05-14T04:18:19.404Z,6.37
2019-05-14T04:20:50.054Z,6.56
2019-05-14T04:23:15.467Z,6.31
2019-05-14T04:25:41.323Z,6.56
2019-05-14T04:28:12.657Z,6.50
2019-05-14T04:30:39.970Z,6.56
2019-05-14T04:33:10.351Z,6.50
2019-05-14T04:35:34.783Z,6.94
2019-05-14T04:38:00.634Z,6.62
2019-05-14T04:40:29.468Z,6.94
2019-05-14T04:42:54.363Z,7.12
2019-05-14T04:45:20.203Z,7.06
2019-05-14T04:47:49.511Z,6.75
2019-05-14T04:50:13.914Z,7.19
2019-05-14T04:52:40.568Z,6.94
2019-05-14T04:55:09.029Z,7.31
2019-05-14T04:57:34.536Z,7.31
2019-05-14T05:00:00.518Z,7.37
2019-05-14T05:02:29.783Z,7.37
2019-05-14T05:04:54.525Z,7.31
2019-05-14T05:07:21.465Z,7.37
2019-05-14T05:09:50.212Z,7.62
2019-05-14T05:12:15.052Z,7.56
2019-05-14T05:14:40.947Z,7.69
2019-05-14T05:17:09.121Z,7.94
2019-05-14T05:19:34.544Z,8.06
2019-05-14T05:22:00.378Z,7.87
2019-05-14T05:24:28.567Z,8.19
2019-05-14T05:26:53.983Z,8.06
2019-05-14T05:29:19.855Z,8.19
2019-05-14T05:31:48.607Z,8.13
2019-05-14T05:34:13.639Z,8.13
2019-05-14T05:36:39.491Z,8.25
2019-05-14T05:39:08.505Z,8.38
2019-05-14T05:41:33.891Z,8.13
2019-05-14T05:43:59.731Z,8.38
2019-05-14T05:46:28.350Z,8.25
2019-05-14T05:48:53.307Z,8.13
2019-05-14T05:51:19.205Z,8.25
2019-05-14T05:53:45.350Z,8.19
2019-05-14T05:56:11.191Z,7.94
2019-05-14T05:58:39.471Z,8.31
2019-05-14T06:01:04.821Z,8.31
2019-05-14T06:03:30.778Z,8.38
2019-05-14T06:05:59.382Z,8.75
2019-05-14T06:08:25.313Z,8.69
2019-05-14T06:10:51.422Z,8.50
2019-05-14T06:13:18.244Z,8.63
2019-05-14T06:15:48.472Z,8.63
2019-05-14T06:18:18.040Z,8.63
2019-05-14T06:20:39.803Z,8.25
2019-05-14T06:23:08.275Z,8.63
2019-05-14T06:25:33.470Z,8.94
2019-05-14T06:27:59.311Z,8.94
2019-05-14T06:30:31.204Z,8.88
2019-05-14T06:32:59.261Z,8.81
2019-05-14T06:35:24.808Z,9.06
2019-05-14T06:37:53.419Z,9.19
2019-05-14T06:40:21.144Z,9.13
2019-05-14T06:42:48.533Z,9.13
2019-05-14T06:45:14.655Z,9.06
2019-05-14T06:47:40.679Z,9.25
2019-05-14T06:50:08.561Z,9.44
2019-05-14T06:52:34.341Z,9.19
2019-05-14T06:55:00.423Z,9.38
2019-05-14T06:57:28.531Z,9.69
2019-05-14T06:59:58.753Z,9.56
2019-05-14T07:02:28.618Z,9.38
2019-05-14T07:04:54.700Z,9.44
2019-05-14T07:07:20.831Z,9.69
2019-05-14T07:09:48.874Z,9.75
2019-05-14T07:12:14.778Z,9.81
2019-05-14T07:14:40.724Z,9.94
2019-05-14T07:17:09.001Z,9.88
2019-05-14T07:19:34.542Z,9.75
2019-05-14T07:22:00.481Z,9.81
2019-05-14T07:24:28.353Z,9.88
2019-05-14T07:26:54.088Z,9.88
2019-05-14T07:29:20.008Z,9.81
2019-05-14T07:31:45.972Z,9.88
2019-05-14T07:34:11.853Z,9.88
2019-05-14T07:36:38.750Z,10.19
2019-05-14T07:39:09.003Z,10.00
2019-05-14T07:41:33.356Z,10.50
2019-05-14T07:44:01.676Z,10.19
2019-05-14T07:46:28.290Z,10.25
2019-05-14T07:49:05.405Z,10.25
2019-05-14T07:51:22.108Z,10.75
2019-05-14T07:53:48.841Z,10.94
2019-05-14T07:56:15.098Z,11.06
2019-05-14T07:58:40.968Z,11.06
2019-05-14T08:01:09.159Z,10.81
2019-05-14T08:03:34.643Z,11.12
2019-05-14T08:06:00.584Z,10.81
2019-05-14T08:08:26.432Z,10.63
2019-05-14T08:10:52.305Z,10.31
2019-05-14T08:13:19.100Z,10.50
2019-05-14T08:15:45.305Z,11.06
2019-05-14T08:18:11.154Z,11.38
2019-05-14T08:20:37.983Z,11.56
2019-05-14T08:23:04.228Z,11.38
2019-05-14T08:25:30.138Z,11.31
2019-05-14T08:27:58.506Z,10.94
2019-05-14T08:30:24.005Z,11.00
2019-05-14T08:32:49.846Z,11.00
2019-05-14T08:35:15.699Z,10.81
2019-05-14T08:37:41.523Z,11.12
2019-05-14T08:40:09.463Z,10.94
2019-05-14T08:42:35.415Z,11.06
2019-05-14T08:45:10.608Z,10.94
2019-05-14T08:47:36.061Z,11.25
2019-05-14T08:50:02.747Z,11.44
2019-05-14T08:52:28.939Z,11.44
2019-05-14T08:55:07.088Z,11.81
2019-05-14T08:57:25.415Z,11.50
2019-05-14T08:59:51.375Z,11.63
2019-05-14T09:02:19.655Z,11.50
2019-05-14T09:04:52.660Z,11.50
2019-05-14T09:07:18.574Z,11.12
2019-05-14T09:09:44.497Z,11.12
2019-05-14T09:12:12.645Z,11.63
2019-05-14T09:14:38.883Z,11.63
2019-05-14T09:17:04.896Z,11.50
2019-05-14T09:19:30.762Z,11.75
2019-05-14T09:21:58.867Z,11.38
2019-05-14T09:24:24.447Z,11.44
2019-05-14T09:26:50.301Z,11.31
2019-05-14T09:29:25.055Z,11.56
2019-05-14T09:31:43.891Z,11.38
2019-05-14T09:34:09.857Z,11.81
2019-05-14T09:36:35.695Z,11.94
2019-05-14T09:39:01.773Z,12.06
2019-05-14T09:41:30.369Z,12.00
2019-05-14T09:43:55.359Z,11.94
2019-05-14T09:46:21.179Z,11.94
2019-05-14T09:48:48.749Z,11.94
2019-05-14T09:51:14.759Z,11.75
2019-05-14T09:53:40.599Z,11.69
2019-05-14T09:56:08.888Z,11.88
2019-05-14T09:58:34.217Z,11.94
2019-05-14T10:01:00.183Z,11.75
2019-05-14T10:03:26.239Z,12.06
2019-05-14T10:05:52.096Z,12.19
2019-05-14T10:08:19.358Z,12.31
2019-05-14T10:10:45.528Z,12.69
2019-05-14T10:13:11.373Z,12.69
2019-05-14T10:15:39.058Z,12.94
2019-05-14T10:18:05.104Z,12.56
2019-05-14T10:20:40.193Z,12.75
2019-05-14T10:22:58.793Z,12.56
2019-05-14T10:25:24.644Z,12.37
2019-05-14T10:27:52.721Z,12.25
2019-05-14T10:30:18.876Z,12.25
2019-05-14T10:32:44.901Z,12.25
2019-05-14T10:35:11.342Z,12.25
2019-05-14T10:37:39.792Z,12.75
2019-05-14T10:40:10.504Z,12.81
2019-05-14T10:42:36.201Z,12.25
2019-05-14T10:45:04.615Z,12.00
2019-05-14T10:47:30.491Z,12.13
2019-05-14T10:49:58.380Z,12.56
2019-05-14T10:52:24.464Z,12.75
2019-05-14T10:54:55.887Z,12.44
2019-05-14T10:57:18.383Z,12.63
2019-05-14T10:59:44.390Z,12.75
2019-05-14T11:02:11.935Z,12.94
2019-05-14T11:04:38.985Z,12.75
2019-05-14T11:07:05.140Z,12.75
2019-05-14T11:09:30.983Z,12.56
2019-05-14T11:11:58.377Z,12.56
2019-05-14T11:14:24.700Z,12.37
2019-05-14T11:16:50.668Z,12.75
2019-05-14T11:19:18.757Z,12.81
2019-05-14T11:21:44.540Z,12.94
2019-05-14T11:24:10.671Z,12.63
2019-05-14T11:26:38.936Z,12.37
2019-05-14T11:29:04.252Z,12.25
2019-05-14T11:31:34.357Z,12.00
2019-05-14T11:33:59.876Z,12.19
2019-05-14T11:36:25.842Z,12.19
2019-05-14T11:38:51.780Z,12.13
2019-05-14T11:41:18.591Z,12.13
2019-05-14T11:43:44.729Z,12.25
2019-05-14T11:46:10.613Z,12.25
2019-05-14T11:48:39.345Z,12.25
2019-05-14T11:51:05.419Z,12.00
2019-05-14T11:53:31.355Z,12.13
2019-05-14T11:55:58.730Z,11.94
2019-05-14T11:58:24.794Z,12.25
2019-05-14T12:00:50.722Z,11.94
2019-05-14T12:03:19.581Z,11.69
2019-05-14T12:05:44.480Z,11.88
2019-05-14T12:08:10.448Z,12.00
2019-05-14T12:10:38.738Z,12.31
2019-05-14T12:13:08.397Z,11.63
2019-05-14T12:15:33.857Z,11.88
2019-05-14T12:17:59.844Z,11.63
2019-05-14T12:20:25.755Z,11.63
2019-05-14T12:22:51.774Z,11.63
2019-05-14T12:25:18.897Z,11.94
2019-05-14T12:27:49.302Z,12.19
2019-05-14T12:30:15.404Z,12.13
2019-05-14T12:32:41.336Z,12.00
2019-05-14T12:35:08.605Z,11.81
2019-05-14T12:37:38.790Z,12.25
2019-05-14T12:40:05.267Z,12.44
2019-05-14T12:42:31.436Z,12.19
2019-05-14T12:44:58.604Z,12.25
2019-05-14T12:47:25.180Z,12.13
2019-05-14T12:49:52.664Z,12.31
2019-05-14T12:52:25.738Z,12.19
2019-05-14T12:54:50.144Z,12.25
2019-05-14T12:57:18.811Z,12.31
2019-05-14T12:59:44.278Z,12.50
2019-05-14T13:02:10.118Z,12.44
2019-05-14T13:04:35.980Z,12.56
2019-05-14T13:07:01.903Z,12.56
2019-05-14T13:09:27.775Z,12.44
2019-05-14T13:11:53.631Z,12.44
2019-05-14T13:14:19.489Z,12.13
2019-05-14T13:16:45.378Z,12.19
2019-05-14T13:19:12.227Z,12.06
2019-05-14T13:21:38.998Z,12.06
2019-05-14T13:24:05.040Z,12.19
2019-05-14T13:26:30.969Z,12.19
2019-05-14T13:28:58.932Z,12.37
2019-05-14T13:31:24.663Z,12.44
2019-05-14T13:33:50.543Z,12.50
2019-05-14T13:36:19.780Z,12.88
2019-05-14T13:38:44.261Z,13.13
2019-05-14T13:41:10.673Z,12.81
2019-05-14T13:43:38.983Z,12.75
2019-05-14T13:46:04.317Z,12.81
2019-05-14T13:48:30.213Z,12.81
2019-05-14T13:50:56.292Z,13.00
2019-05-14T13:53:22.117Z,12.50
2019-05-14T13:55:57.653Z,12.69
2019-05-14T13:58:20.905Z,12.50
2019-05-14T14:00:51.652Z,12.50
2019-05-14T14:03:19.654Z,13.00
2019-05-14T14:05:43.857Z,13.00
2019-05-14T14:08:09.723Z,12.94
2019-05-14T14:10:36.548Z,12.13
2019-05-14T14:13:06.659Z,12.69
2019-05-14T14:15:31.195Z,12.44
2019-05-14T14:17:57.069Z,12.94
2019-05-14T14:20:22.980Z,13.31
2019-05-14T14:22:49.137Z,12.50
2019-05-14T14:25:17.620Z,12.75
2019-05-14T14:27:42.974Z,12.75
2019-05-14T14:30:09.641Z,12.63
2019-05-14T14:32:35.529Z,12.31
2019-05-14T14:35:01.525Z,12.19
2019-05-14T14:37:28.617Z,12.50
2019-05-14T14:39:54.609Z,13.13
2019-05-14T14:42:20.543Z,13.25
2019-05-14T14:44:48.434Z,13.50
2019-05-14T14:47:14.169Z,13.50
2019-05-14T14:49:43.455Z,13.75
2019-05-14T14:52:11.864Z,14.13
2019-05-14T14:54:38.073Z,13.69
2019-05-14T14:57:03.615Z,13.88
2019-05-14T14:59:30.424Z,12.94
2019-05-14T15:01:59.660Z,13.06
2019-05-14T15:04:24.464Z,12.88
2019-05-14T15:06:51.120Z,12.63
2019-05-14T15:09:17.215Z,12.50
2019-05-14T15:11:43.079Z,12.19
2019-05-14T15:14:09.015Z,12.81
2019-05-14T15:16:34.877Z,13.13
2019-05-14T15:19:00.709Z,13.00
2019-05-14T15:21:29.719Z,12.37
2019-05-14T15:24:09.850Z,12.63
2019-05-14T15:26:28.850Z,12.44
2019-05-14T15:28:54.769Z,12.75
2019-05-14T15:31:20.675Z,12.37
2019-05-14T15:33:50.461Z,12.25
2019-05-14T15:36:20.658Z,12.44
2019-05-14T15:38:44.423Z,12.88
2019-05-14T15:41:13.466Z,12.13
2019-05-14T15:47:45.056Z,12.13
2019-05-14T15:50:32.837Z,12.00
2019-05-14T15:52:58.494Z,12.88
2019-05-14T15:55:24.773Z,12.75
2019-05-14T15:57:58.897Z,12.94
2019-05-14T16:00:29.936Z,12.94
2019-05-14T16:03:00.220Z,13.81
2019-05-14T16:05:39.187Z,13.62
2019-05-14T16:08:25.016Z,13.81
2019-05-14T16:14:12.960Z,13.62
2019-05-14T16:16:41.316Z,13.38
2019-05-14T16:20:52.358Z,13.50
2019-05-14T16:23:05.658Z,13.25
2019-05-14T16:27:41.256Z,12.75
2019-05-14T16:30:30.304Z,12.75
2019-05-14T16:33:29.145Z,12.37
2019-05-14T16:36:01.999Z,12.75
2019-05-14T16:38:43.550Z,12.75
2019-05-14T16:41:33.944Z,12.81
2019-05-14T16:44:02.316Z,13.06
2019-05-14T16:49:48.252Z,12.50
2019-05-14T16:52:14.342Z,12.94
2019-05-14T16:57:19.177Z,12.56
2019-05-14T16:59:45.335Z,12.69
2019-05-14T17:02:11.330Z,12.56
2019-05-14T17:04:38.735Z,12.37
2019-05-14T17:07:09.808Z,12.50
2019-05-14T17:09:38.581Z,12.37
2019-05-14T17:12:04.934Z,12.00
2019-05-14T17:14:46.980Z,12.06
2019-05-14T17:17:14.988Z,12.06
2019-05-14T17:19:41.068Z,11.94
2019-05-14T17:22:24.448Z,12.06
2019-05-14T17:24:40.213Z,11.63
2019-05-14T17:27:06.309Z,11.50
2019-05-14T17:29:32.498Z,11.69
2019-05-14T17:32:00.431Z,11.44
2019-05-14T17:34:29.099Z,11.25
2019-05-14T17:36:54.335Z,11.06
2019-05-14T17:39:22.284Z,11.25
2019-05-14T17:41:48.653Z,11.56
2019-05-14T17:44:14.833Z,11.63
2019-05-14T17:46:40.864Z,11.63
2019-05-14T17:49:06.881Z,11.94
2019-05-14T17:51:33.203Z,12.13
2019-05-14T17:53:59.145Z,12.50
2019-05-14T17:56:25.097Z,12.37
2019-05-14T17:58:50.997Z,11.25
2019-05-14T18:01:18.274Z,11.94
2019-05-14T18:03:44.688Z,11.94
2019-05-14T18:06:10.615Z,12.00
2019-05-14T18:08:36.643Z,12.06
2019-05-14T18:11:02.585Z,11.81
2019-05-14T18:13:28.686Z,11.94
2019-05-14T18:15:54.777Z,11.88
2019-05-14T18:18:20.761Z,11.81
2019-05-14T18:20:48.873Z,11.69
2019-05-14T18:23:18.067Z,11.81
2019-05-14T18:25:43.363Z,12.06
2019-05-14T18:28:09.463Z,11.94
2019-05-14T18:30:35.565Z,11.94
2019-05-14T18:33:01.427Z,12.19
2019-05-14T18:35:29.544Z,11.63
2019-05-14T18:37:55.038Z,11.31
2019-05-14T18:40:20.963Z,11.31
2019-05-14T18:42:48.056Z,11.00
2019-05-14T18:45:14.446Z,10.75
2019-05-14T18:47:40.291Z,10.63
2019-05-14T18:50:08.797Z,10.31
2019-05-14T18:52:34.139Z,10.44
2019-05-14T18:55:00.083Z,10.31
2019-05-14T18:57:28.511Z,10.25
2019-05-14T18:59:54.120Z,10.38
2019-05-14T19:02:19.977Z,10.25
2019-05-14T19:04:45.830Z,10.19
2019-05-14T19:07:11.716Z,10.06
2019-05-14T19:09:38.872Z,10.06
2019-05-14T19:12:05.015Z,10.06
2019-05-14T19:14:30.881Z,10.19
2019-05-14T19:16:58.488Z,9.94
2019-05-14T19:19:24.457Z,9.81
2019-05-14T19:21:50.325Z,9.75
2019-05-14T19:24:16.179Z,9.56
2019-05-14T19:26:42.117Z,9.38
2019-05-14T19:29:08.673Z,9.50
2019-05-14T19:31:34.731Z,9.56
2019-05-14T19:34:00.955Z,9.44
2019-05-14T19:36:28.149Z,9.44
2019-05-14T19:38:54.160Z,9.25
2019-05-14T19:41:22.961Z,9.31
2019-05-14T19:43:47.771Z,9.25
2019-05-14T19:46:13.608Z,9.13
2019-05-14T19:48:39.469Z,9.13
2019-05-14T19:51:05.349Z,9.13
2019-05-14T19:53:31.266Z,9.06
2019-05-14T19:55:59.336Z,9.06
2019-05-14T19:58:24.896Z,8.88
2019-05-14T20:00:50.844Z,9.00
2019-05-14T20:03:18.839Z,8.94
2019-05-14T20:05:46.354Z,8.94
2019-05-14T20:08:12.211Z,8.81
2019-05-14T20:10:38.687Z,8.75
2019-05-14T20:13:04.911Z,8.88
2019-05-14T20:15:30.756Z,8.75
2019-05-14T20:17:58.200Z,8.69
2019-05-14T20:20:24.274Z,8.63
2019-05-14T20:22:50.247Z,8.63
2019-05-14T20:25:16.114Z,8.44
2019-05-14T20:27:41.959Z,8.44
2019-05-14T20:30:08.764Z,8.44
2019-05-14T20:32:34.681Z,8.38
2019-05-14T20:35:00.629Z,8.31
2019-05-14T20:37:26.499Z,8.19
2019-05-14T20:39:52.352Z,8.19
2019-05-14T20:42:18.608Z,8.31
2019-05-14T20:44:44.592Z,8.31
2019-05-14T20:47:10.428Z,8.13
2019-05-14T20:49:38.054Z,8.19
2019-05-14T20:52:04.050Z,8.13
2019-05-14T20:54:29.940Z,8.13
2019-05-14T20:56:55.767Z,8.13
2019-05-14T20:59:23.847Z,8.06
2019-05-14T21:01:49.768Z,8.00
2019-05-14T21:04:15.625Z,8.06
2019-05-14T21:06:41.778Z,7.81
2019-05-14T21:09:07.620Z,7.81
2019-05-14T21:11:33.584Z,7.87
2019-05-14T21:13:59.527Z,7.94
2019-05-14T21:16:28.061Z,7.81
2019-05-14T21:18:59.050Z,8.00
2019-05-14T21:21:24.080Z,7.94
2019-05-14T21:23:49.920Z,7.62
2019-05-14T21:26:15.792Z,7.75
2019-05-14T21:28:41.634Z,7.56
2019-05-14T21:31:10.194Z,7.56
2019-05-14T21:33:35.228Z,7.50
2019-05-14T21:36:01.084Z,7.56
2019-05-14T21:38:28.661Z,7.75
2019-05-14T21:40:54.699Z,7.25
2019-05-14T21:43:20.652Z,7.37
2019-05-14T21:45:48.849Z,7.37
2019-05-14T21:48:14.386Z,7.19
2019-05-14T21:50:40.232Z,7.19
2019-05-14T21:53:08.211Z,7.31
2019-05-14T21:55:33.891Z,7.12
2019-05-14T21:57:59.747Z,7.19
2019-05-14T22:00:31.105Z,7.06
2019-05-14T22:02:58.454Z,7.00
2019-05-14T22:05:24.511Z,7.19
2019-05-14T22:07:50.390Z,7.25
2019-05-14T22:10:18.830Z,7.12
2019-05-14T22:12:44.404Z,7.00
2019-05-14T22:15:12.224Z,6.81
2019-05-14T22:17:38.372Z,6.75
2019-05-14T22:20:05.586Z,6.69
2019-05-14T22:22:31.443Z,6.75
2019-05-14T22:24:57.290Z,6.75
2019-05-14T22:27:23.421Z,6.62
2019-05-14T22:29:49.289Z,6.62
2019-05-14T22:32:15.121Z,6.69
2019-05-14T22:34:41.462Z,6.87
2019-05-14T22:37:07.544Z,6.69
2019-05-14T22:39:33.398Z,6.81
2019-05-14T22:42:00.201Z,6.37
2019-05-14T22:44:28.073Z,6.56
2019-05-14T22:46:53.975Z,6.56
2019-05-14T22:49:19.802Z,6.31
2019-05-14T22:51:45.660Z,6.50
2019-05-14T22:54:11.490Z,6.31
2019-05-14T22:56:38.963Z,6.37
2019-05-14T22:59:05.080Z,6.44
2019-05-14T23:01:30.987Z,6.19
2019-05-14T23:03:59.480Z,6.31
2019-05-14T23:06:24.809Z,6.12
2019-05-14T23:08:50.692Z,6.12
2019-05-14T23:11:16.627Z,6.12
2019-05-14T23:13:42.543Z,6.06
2019-05-14T23:16:08.389Z,6.06
2019-05-14T23:18:34.330Z,6.19
2019-05-14T23:21:00.188Z,6.00
2019-05-14T23:23:28.080Z,6.06
2019-05-14T23:25:53.740Z,5.94
2019-05-14T23:28:19.599Z,6.00
2019-05-14T23:30:48.009Z,5.94
2019-05-14T23:33:13.291Z,5.87
2019-05-14T23:35:39.568Z,5.75
2019-05-14T23:38:05.406Z,5.94
2019-05-14T23:40:31.255Z,5.87
2019-05-14T23:42:58.868Z,5.81
2019-05-14T23:45:24.875Z,5.81
2019-05-14T23:47:50.731Z,5.56
2019-05-14T23:50:16.558Z,5.81
2019-05-14T23:52:42.423Z,5.69
2019-05-14T23:55:11.354Z,5.87
2019-05-14T23:57:37.299Z,5.56
